createdAt,value
2022-10-29T00:00:30.895Z,85.15
2022-10-29T00:03:00.191Z,85.09
2022-10-29T00:05:29.511Z,85.12
2022-10-29T00:08:00.204Z,85.18
2022-10-29T00:10:29.595Z,85.20
2022-10-29T00:13:02.069Z,85.24
2022-10-29T00:15:33.176Z,85.34
2022-10-29T00:18:03.581Z,85.35
2022-10-29T00:20:33.600Z,85.41
2022-10-29T00:23:02.707Z,85.54
2022-10-29T00:25:31.750Z,85.62
2022-10-29T00:28:02.258Z,85.64
2022-10-29T00:30:31.921Z,85.78
2022-10-29T00:33:02.696Z,86.28
2022-10-29T00:35:31.860Z,86.64
2022-10-29T00:38:03.216Z,86.81
2022-10-29T00:40:37.371Z,87.02
2022-10-29T00:43:16.688Z,87.23
2022-10-29T00:45:59.408Z,87.38
2022-10-29T00:48:30.251Z,87.39
2022-10-29T00:50:59.549Z,87.43
2022-10-29T00:53:30.796Z,87.41
2022-10-29T00:56:01.683Z,87.32
2022-10-29T00:58:30.868Z,87.24
2022-10-29T01:01:02.178Z,87.21
2022-10-29T01:03:31.860Z,87.28
2022-10-29T01:06:02.161Z,87.34
2022-10-29T01:08:32.245Z,87.28
2022-10-29T01:11:38.658Z,87.37
2022-10-29T01:14:45.066Z,87.41
2022-10-29T01:17:51.946Z,87.33
2022-10-29T01:20:41.398Z,87.29
2022-10-29T01:23:42.976Z,87.30
2022-10-29T01:26:51.727Z,87.49
2022-10-29T01:29:50.922Z,87.59
2022-10-29T01:32:28.897Z,87.62
2022-10-29T01:35:21.256Z,87.79
2022-10-29T01:38:20.648Z,87.84
2022-10-29T01:41:14.535Z,88.05
2022-10-29T01:43:49.485Z,88.22
2022-10-29T01:46:26.471Z,88.32
2022-10-29T01:48:58.404Z,88.36
2022-10-29T01:51:30.486Z,88.28
2022-10-29T01:54:00.127Z,88.37
2022-10-29T01:56:29.509Z,88.46
2022-10-29T01:58:59.075Z,88.55
2022-10-29T02:01:46.025Z,88.66
2022-10-29T02:04:42.390Z,88.72
2022-10-29T02:07:19.880Z,88.91
2022-10-29T02:09:59.618Z,88.96
2022-10-29T02:12:36.117Z,89.00
2022-10-29T02:15:22.289Z,88.93
2022-10-29T02:17:52.742Z,88.83
2022-10-29T02:20:23.484Z,88.95
2022-10-29T02:22:52.810Z,88.93
2022-10-29T02:25:21.560Z,88.96
2022-10-29T02:27:50.319Z,89.08
2022-10-29T02:30:19.601Z,89.24
2022-10-29T02:32:48.365Z,89.37
2022-10-29T02:35:17.520Z,89.46
2022-10-29T02:37:46.992Z,89.54
2022-10-29T02:40:16.214Z,89.70
2022-10-29T02:42:44.828Z,89.53
2022-10-29T02:45:16.166Z,89.59
2022-10-29T02:47:45.655Z,89.67
2022-10-29T02:50:16.965Z,89.70
2022-10-29T02:52:45.732Z,89.72
2022-10-29T02:55:15.774Z,89.62
2022-10-29T02:57:46.635Z,89.54
2022-10-29T03:00:16.795Z,89.65
2022-10-29T03:02:45.684Z,89.74
2022-10-29T03:05:15.290Z,89.86
2022-10-29T03:07:44.149Z,89.87
2022-10-29T03:10:13.146Z,89.81
2022-10-29T03:12:43.382Z,89.80
2022-10-29T03:15:14.007Z,89.84
2022-10-29T03:17:43.191Z,89.89
2022-10-29T03:20:13.071Z,89.89
2022-10-29T03:22:42.879Z,89.99
2022-10-29T03:25:12.101Z,90.01
2022-10-29T03:27:45.275Z,90.05
2022-10-29T03:30:15.495Z,89.95
2022-10-29T03:32:47.115Z,89.95
2022-10-29T03:35:16.526Z,89.92
2022-10-29T03:37:51.880Z,89.96
2022-10-29T03:40:21.099Z,89.93
2022-10-29T03:42:51.713Z,89.94
2022-10-29T03:45:20.911Z,90.00
2022-10-29T03:47:49.989Z,90.00
2022-10-29T03:50:18.776Z,90.07
2022-10-29T03:52:48.733Z,90.26
2022-10-29T03:55:18.204Z,90.41
2022-10-29T03:57:48.046Z,90.43
2022-10-29T04:00:17.640Z,90.51
2022-10-29T04:02:47.378Z,90.70
2022-10-29T04:05:16.829Z,90.69
2022-10-29T04:07:46.143Z,90.60
2022-10-29T04:10:15.733Z,90.59
2022-10-29T04:12:47.840Z,90.60
2022-10-29T04:15:17.136Z,90.53
2022-10-29T04:17:46.265Z,90.54
2022-10-29T04:20:41.274Z,90.53
2022-10-29T04:25:31.814Z,90.56
2022-10-29T04:30:26.549Z,90.45
2022-10-29T04:32:59.581Z,90.58
2022-10-29T04:35:30.032Z,90.72
2022-10-29T04:37:59.550Z,90.81
2022-10-29T04:40:28.736Z,90.85
2022-10-29T04:42:57.561Z,90.72
2022-10-29T04:45:26.885Z,90.73
2022-10-29T04:48:03.798Z,90.70
2022-10-29T04:50:33.539Z,90.70
2022-10-29T04:53:04.280Z,90.70
2022-10-29T04:55:38.424Z,90.66
2022-10-29T04:58:07.650Z,90.68
2022-10-29T05:00:37.288Z,90.75
2022-10-29T05:03:06.721Z,90.65
2022-10-29T05:05:39.455Z,90.52
2022-10-29T05:08:10.733Z,90.58
2022-10-29T05:10:39.831Z,90.77
2022-10-29T05:13:12.474Z,90.87
2022-10-29T05:15:42.935Z,90.93
2022-10-29T05:18:12.737Z,90.89
2022-10-29T05:20:41.666Z,90.96
2022-10-29T05:23:11.189Z,90.98
2022-10-29T05:25:40.939Z,90.94
2022-10-29T05:28:13.582Z,90.83
2022-10-29T05:30:43.744Z,90.70
2022-10-29T05:33:15.553Z,90.70
2022-10-29T05:35:44.402Z,90.71
2022-10-29T05:38:15.350Z,90.74
2022-10-29T05:40:44.860Z,90.72
2022-10-29T05:43:15.377Z,90.72
2022-10-29T05:45:44.390Z,90.77
2022-10-29T05:48:14.073Z,90.76
2022-10-29T05:50:43.694Z,90.83
2022-10-29T05:53:15.607Z,90.85
2022-10-29T05:55:44.970Z,90.90
2022-10-29T05:58:14.075Z,91.04
2022-10-29T06:00:44.893Z,91.05
2022-10-29T06:03:16.774Z,91.17
2022-10-29T06:05:47.580Z,91.26
2022-10-29T06:08:16.596Z,91.37
2022-10-29T06:10:45.649Z,91.34
2022-10-29T06:13:17.893Z,91.23
2022-10-29T06:15:50.772Z,91.22
2022-10-29T06:18:20.645Z,91.15
2022-10-29T06:20:50.046Z,91.05
2022-10-29T06:23:20.073Z,90.95
2022-10-29T06:25:49.488Z,90.84
2022-10-29T06:28:19.216Z,90.69
2022-10-29T06:30:52.218Z,90.59
2022-10-29T06:33:23.203Z,90.48
2022-10-29T06:35:54.159Z,90.58
2022-10-29T06:38:23.205Z,90.53
2022-10-29T06:40:55.024Z,90.36
2022-10-29T06:43:25.621Z,90.12
2022-10-29T06:45:54.534Z,89.85
2022-10-29T06:48:25.345Z,89.55
2022-10-29T06:50:55.559Z,89.13
2022-10-29T06:53:24.947Z,88.76
2022-10-29T06:55:54.288Z,88.29
2022-10-29T06:58:24.652Z,88.05
2022-10-29T07:00:54.248Z,87.78
2022-10-29T07:03:24.734Z,87.44
2022-10-29T07:05:57.529Z,87.08
2022-10-29T07:08:26.596Z,86.82
2022-10-29T07:10:56.539Z,86.52
2022-10-29T07:13:25.778Z,86.35
2022-10-29T07:15:56.945Z,86.35
2022-10-29T07:18:28.051Z,86.34
2022-10-29T07:20:58.039Z,86.26
2022-10-29T07:26:00.352Z,85.73
2022-10-29T07:28:29.448Z,85.10
2022-10-29T07:31:00.485Z,84.68
2022-10-29T07:33:31.084Z,84.26
2022-10-29T07:36:02.812Z,84.12
2022-10-29T07:38:32.820Z,84.00
2022-10-29T07:41:02.665Z,83.93
2022-10-29T07:43:33.166Z,83.86
2022-10-29T07:46:02.558Z,83.83
2022-10-29T07:48:33.605Z,83.76
2022-10-29T07:51:05.216Z,83.89
2022-10-29T07:53:34.689Z,83.83
2022-10-29T07:56:03.215Z,83.70
2022-10-29T07:58:32.766Z,83.61
2022-10-29T08:01:01.856Z,83.37
2022-10-29T08:03:31.449Z,83.10
2022-10-29T08:06:03.028Z,82.86
2022-10-29T08:08:33.676Z,82.43
2022-10-29T08:11:03.992Z,82.00
2022-10-29T08:13:32.703Z,81.53
2022-10-29T08:16:02.520Z,81.19
2022-10-29T08:18:33.609Z,81.12
2022-10-29T08:21:05.664Z,81.27
2022-10-29T08:23:34.924Z,81.26
2022-10-29T08:26:03.872Z,80.63
2022-10-29T08:28:35.859Z,79.97
2022-10-29T08:31:05.523Z,79.38
2022-10-29T08:33:34.372Z,78.96
2022-10-29T08:36:02.996Z,78.56
2022-10-29T08:38:31.940Z,78.34
2022-10-29T08:41:18.062Z,77.94
2022-10-29T08:43:58.816Z,77.72
2022-10-29T08:46:56.567Z,77.08
2022-10-29T08:49:36.153Z,77.02
2022-10-29T08:52:12.131Z,76.72
2022-10-29T08:54:42.015Z,76.44
2022-10-29T08:57:18.113Z,76.36
2022-10-29T09:00:02.030Z,76.09
2022-10-29T09:02:31.176Z,75.67
2022-10-29T09:05:01.292Z,75.46
2022-10-29T09:08:17.523Z,75.20
2022-10-29T09:10:53.916Z,74.95
2022-10-29T09:13:34.797Z,74.79
2022-10-29T09:16:19.161Z,74.54
2022-10-29T09:19:18.621Z,74.35
2022-10-29T09:22:24.657Z,74.41
2022-10-29T09:25:20.710Z,74.29
2022-10-29T09:28:09.816Z,74.10
2022-10-29T09:30:49.542Z,73.90
2022-10-29T09:33:20.012Z,73.65
2022-10-29T09:35:54.615Z,73.38
2022-10-29T09:38:28.431Z,73.28
2022-10-29T09:40:58.322Z,73.25
2022-10-29T09:44:00.819Z,73.08
2022-10-29T09:46:42.472Z,72.75
2022-10-29T09:49:55.354Z,72.57
2022-10-29T09:52:26.417Z,72.32
2022-10-29T09:54:55.262Z,72.19
2022-10-29T09:57:26.251Z,72.11
2022-10-29T09:59:58.098Z,71.81
2022-10-29T10:02:45.926Z,71.63
2022-10-29T10:05:17.660Z,71.15
2022-10-29T10:08:09.817Z,71.05
2022-10-29T10:10:59.683Z,71.16
2022-10-29T10:13:32.333Z,71.00
2022-10-29T10:16:03.784Z,70.62
2022-10-29T10:18:39.997Z,70.55
2022-10-29T10:21:16.585Z,70.46
2022-10-29T10:23:52.572Z,70.21
2022-10-29T10:26:42.947Z,70.22
2022-10-29T10:29:24.907Z,69.97
2022-10-29T10:32:02.481Z,69.88
2022-10-29T10:34:39.088Z,69.92
2022-10-29T10:37:19.413Z,69.92
2022-10-29T10:40:03.187Z,70.65
2022-10-29T10:42:36.936Z,71.63
2022-10-29T10:45:19.952Z,72.30
2022-10-29T10:47:53.982Z,73.26
2022-10-29T10:50:28.974Z,73.66
2022-10-29T10:52:59.483Z,74.03
2022-10-29T10:55:34.880Z,74.38
2022-10-29T10:58:25.180Z,74.52
2022-10-29T11:01:06.717Z,74.73
2022-10-29T11:03:40.966Z,74.56
2022-10-29T11:06:29.238Z,74.64
2022-10-29T11:09:40.835Z,75.10
2022-10-29T11:12:34.850Z,75.37
2022-10-29T11:15:24.747Z,75.98
2022-10-29T11:18:00.866Z,76.71
2022-10-29T11:20:34.939Z,77.31
2022-10-29T11:23:24.062Z,77.73
2022-10-29T11:26:15.909Z,77.75
2022-10-29T11:28:52.940Z,77.81
2022-10-29T11:32:07.834Z,77.92
2022-10-29T11:35:11.915Z,77.91
2022-10-29T11:37:52.279Z,77.87
2022-10-29T11:40:35.989Z,78.07
2022-10-29T11:43:12.714Z,77.89
2022-10-29T11:46:06.077Z,78.13
2022-10-29T11:49:18.310Z,78.32
2022-10-29T11:52:11.275Z,78.48
2022-10-29T11:55:04.188Z,78.46
2022-10-29T11:57:48.715Z,78.39
2022-10-29T12:00:24.551Z,78.06
2022-10-29T12:03:33.627Z,78.05
2022-10-29T12:06:16.769Z,77.93
2022-10-29T12:08:57.093Z,77.78
2022-10-29T12:11:43.148Z,77.55
2022-10-29T12:14:26.353Z,77.42
2022-10-29T12:17:16.020Z,77.12
2022-10-29T12:20:14.493Z,76.99
2022-10-29T12:23:20.457Z,76.92
2022-10-29T12:25:59.880Z,76.79
2022-10-29T12:28:44.579Z,76.57
2022-10-29T12:31:42.423Z,76.24
2022-10-29T12:34:41.033Z,76.12
2022-10-29T12:37:20.081Z,76.10
2022-10-29T12:39:55.341Z,76.02
2022-10-29T12:42:33.053Z,75.79
2022-10-29T12:45:23.893Z,75.67
2022-10-29T12:48:35.131Z,75.57
2022-10-29T12:51:24.574Z,75.50
2022-10-29T12:54:27.177Z,75.23
2022-10-29T12:57:04.988Z,75.05
2022-10-29T12:59:37.684Z,74.85
2022-10-29T13:02:43.639Z,74.72
2022-10-29T13:05:13.677Z,74.47
2022-10-29T13:08:05.484Z,74.44
2022-10-29T13:10:39.512Z,74.24
2022-10-29T13:13:20.200Z,74.01
2022-10-29T13:16:06.169Z,73.79
2022-10-29T13:18:53.849Z,73.63
2022-10-29T13:21:59.418Z,73.41
2022-10-29T13:24:28.352Z,73.33
2022-10-29T13:27:06.035Z,73.27
2022-10-29T13:29:48.142Z,73.05
2022-10-29T13:32:36.484Z,72.70
2022-10-29T13:35:22.610Z,72.67
2022-10-29T13:38:12.803Z,72.66
2022-10-29T13:41:09.561Z,72.62
2022-10-29T13:43:38.203Z,72.36
2022-10-29T13:46:17.998Z,72.14
2022-10-29T13:48:47.410Z,71.95
2022-10-29T13:51:20.476Z,71.95
2022-10-29T13:53:59.073Z,71.97
2022-10-29T13:56:48.418Z,71.95
2022-10-29T13:59:34.986Z,71.86
2022-10-29T14:02:15.268Z,71.91
2022-10-29T14:04:50.504Z,72.09
2022-10-29T14:07:27.237Z,72.04
2022-10-29T14:09:58.133Z,72.15
2022-10-29T14:12:30.422Z,72.11
2022-10-29T14:15:11.699Z,72.10
2022-10-29T14:17:41.059Z,72.14
2022-10-29T14:20:23.633Z,72.37
2022-10-29T14:22:52.525Z,72.57
2022-10-29T14:25:32.069Z,72.73
2022-10-29T14:28:17.605Z,72.72
2022-10-29T14:30:47.888Z,72.74
2022-10-29T14:33:28.433Z,72.69
2022-10-29T14:36:05.475Z,72.68
2022-10-29T14:38:45.493Z,72.65
2022-10-29T14:41:15.739Z,72.65
2022-10-29T14:43:54.491Z,72.70
2022-10-29T14:46:25.382Z,72.57
2022-10-29T14:49:19.272Z,72.60
2022-10-29T14:51:55.585Z,72.62
2022-10-29T14:54:28.041Z,72.61
2022-10-29T14:57:04.745Z,72.52
2022-10-29T14:59:33.668Z,72.35
2022-10-29T15:02:24.228Z,72.33
2022-10-29T15:04:48.823Z,72.16
2022-10-29T15:07:26.303Z,72.10
2022-10-29T15:10:24.449Z,71.98
2022-10-29T15:12:57.193Z,71.61
2022-10-29T15:15:29.027Z,71.54
2022-10-29T15:18:09.978Z,71.58
2022-10-29T15:20:45.891Z,71.52
2022-10-29T15:23:32.947Z,71.46
2022-10-29T15:26:11.500Z,71.40
2022-10-29T15:28:44.814Z,71.44
2022-10-29T15:31:36.494Z,71.32
2022-10-29T15:34:26.457Z,71.29
2022-10-29T15:36:57.525Z,71.18
2022-10-29T15:39:31.753Z,71.38
2022-10-29T15:42:01.658Z,71.49
2022-10-29T15:44:39.312Z,71.61
2022-10-29T15:47:23.669Z,71.71
2022-10-29T15:49:52.739Z,72.06
2022-10-29T15:52:22.764Z,72.33
2022-10-29T15:54:51.623Z,72.53
2022-10-29T15:57:22.951Z,72.69
2022-10-29T15:59:55.114Z,72.66
2022-10-29T16:02:26.906Z,72.61
2022-10-29T16:04:56.437Z,72.60
2022-10-29T16:07:26.722Z,72.66
2022-10-29T16:09:55.379Z,72.64
2022-10-29T16:12:26.231Z,72.52
2022-10-29T16:14:55.924Z,72.50
2022-10-29T16:17:27.717Z,72.44
2022-10-29T16:19:57.229Z,72.28
2022-10-29T16:22:29.437Z,72.26
2022-10-29T16:24:58.438Z,71.97
2022-10-29T16:27:28.558Z,71.82
2022-10-29T16:29:57.700Z,71.45
2022-10-29T16:32:26.750Z,71.25
2022-10-29T16:34:55.674Z,70.99
2022-10-29T16:37:26.627Z,70.56
2022-10-29T16:39:55.996Z,70.34
2022-10-29T16:42:34.971Z,69.76
2022-10-29T16:45:06.054Z,69.55
2022-10-29T16:47:37.645Z,69.41
2022-10-29T16:50:07.421Z,69.12
2022-10-29T16:52:38.571Z,68.88
2022-10-29T16:55:08.200Z,68.68
2022-10-29T16:57:38.945Z,68.66
2022-10-29T17:00:08.896Z,68.38
2022-10-29T17:02:41.355Z,68.08
2022-10-29T17:05:10.673Z,68.02
2022-10-29T17:07:41.452Z,67.79
2022-10-29T17:10:12.409Z,67.65
2022-10-29T17:12:41.645Z,67.55
2022-10-29T17:15:11.825Z,67.60
2022-10-29T17:17:43.912Z,67.60
2022-10-29T17:20:12.516Z,67.62
2022-10-29T17:22:43.524Z,67.57
2022-10-29T17:25:13.911Z,67.60
2022-10-29T17:27:44.746Z,67.60
2022-10-29T17:30:13.886Z,67.62
2022-10-29T17:32:42.508Z,67.55
2022-10-29T17:35:11.806Z,67.62
2022-10-29T17:37:40.699Z,67.55
2022-10-29T17:40:11.363Z,67.68
2022-10-29T17:42:41.322Z,67.62
2022-10-29T17:45:13.203Z,67.65
2022-10-29T17:47:43.645Z,67.74
2022-10-29T17:50:12.375Z,67.83
2022-10-29T17:52:41.566Z,67.96
2022-10-29T17:55:10.443Z,68.05
2022-10-29T17:57:40.336Z,68.25
2022-10-29T18:00:11.292Z,68.39
2022-10-29T18:02:43.774Z,68.57
2022-10-29T18:05:13.103Z,68.70
2022-10-29T18:07:43.375Z,68.84
2022-10-29T18:10:13.553Z,68.96
2022-10-29T18:12:44.220Z,69.08
2022-10-29T18:15:14.353Z,69.23
2022-10-29T18:17:43.766Z,69.47
2022-10-29T18:20:12.816Z,69.55
2022-10-29T18:22:42.857Z,69.68
2022-10-29T18:25:14.044Z,69.75
2022-10-29T18:27:43.742Z,69.85
2022-10-29T18:30:14.424Z,69.95
2022-10-29T18:32:45.242Z,70.05
2022-10-29T18:35:15.046Z,70.22
2022-10-29T18:37:45.609Z,70.24
2022-10-29T18:40:15.495Z,70.23
2022-10-29T18:42:45.578Z,70.25
2022-10-29T18:45:15.228Z,70.32
2022-10-29T18:47:45.245Z,70.41
2022-10-29T18:50:15.280Z,70.52
2022-10-29T18:52:44.952Z,70.70
2022-10-29T18:55:14.981Z,70.79
2022-10-29T18:57:44.018Z,70.88
2022-10-29T19:00:14.516Z,70.96
2022-10-29T19:02:43.408Z,71.04
2022-10-29T19:05:13.311Z,71.16
2022-10-29T19:07:42.192Z,71.34
2022-10-29T19:10:11.869Z,71.44
2022-10-29T19:12:41.107Z,71.57
2022-10-29T19:15:12.341Z,71.62
2022-10-29T19:17:41.626Z,71.72
2022-10-29T19:20:13.373Z,71.83
2022-10-29T19:22:43.730Z,71.93
2022-10-29T19:25:13.440Z,72.12
2022-10-29T19:27:42.615Z,72.29
2022-10-29T19:30:12.813Z,72.38
2022-10-29T19:32:44.016Z,72.46
2022-10-29T19:35:13.021Z,72.56
2022-10-29T19:37:41.762Z,72.63
2022-10-29T19:40:12.164Z,72.76
2022-10-29T19:42:41.286Z,72.87
2022-10-29T19:45:11.015Z,72.90
2022-10-29T19:47:41.509Z,72.91
2022-10-29T19:50:11.173Z,72.98
2022-10-29T19:52:41.511Z,73.08
2022-10-29T19:55:11.419Z,73.26
2022-10-29T19:57:41.760Z,73.39
2022-10-29T20:00:16.603Z,73.40
2022-10-29T20:02:43.214Z,73.46
2022-10-29T20:05:12.950Z,73.58
2022-10-29T20:07:43.065Z,73.70
2022-10-29T20:10:12.367Z,73.81
2022-10-29T20:12:43.074Z,73.87
2022-10-29T20:15:12.825Z,73.98
2022-10-29T20:17:42.192Z,74.08
2022-10-29T20:20:16.684Z,74.15
2022-10-29T20:22:44.586Z,74.19
2022-10-29T20:25:15.227Z,74.24
2022-10-29T20:27:46.302Z,74.32
2022-10-29T20:30:15.337Z,74.38
2022-10-29T20:32:44.662Z,74.42
2022-10-29T20:35:37.162Z,74.50
2022-10-29T20:38:24.869Z,74.56
2022-10-29T20:40:54.920Z,74.62
2022-10-29T20:43:25.020Z,74.66
2022-10-29T20:45:55.590Z,74.74
2022-10-29T20:48:24.708Z,74.88
2022-10-29T20:50:54.505Z,74.98
2022-10-29T20:53:23.494Z,75.08
2022-10-29T20:55:54.077Z,75.14
2022-10-29T20:58:24.042Z,75.26
2022-10-29T21:00:53.282Z,75.37
2022-10-29T21:03:21.956Z,75.51
2022-10-29T21:05:52.453Z,75.60
2022-10-29T21:08:22.402Z,75.63
2022-10-29T21:11:07.054Z,75.72
2022-10-29T21:13:36.270Z,75.85
2022-10-29T21:16:12.360Z,75.99
2022-10-29T21:18:45.820Z,76.11
2022-10-29T21:21:14.647Z,76.24
2022-10-29T21:23:45.397Z,76.37
2022-10-29T21:26:21.243Z,76.55
2022-10-29T21:28:51.456Z,76.72
2022-10-29T21:31:21.957Z,76.80
2022-10-29T21:33:55.699Z,76.90
2022-10-29T21:36:26.228Z,77.01
2022-10-29T21:38:55.715Z,77.20
2022-10-29T21:41:25.413Z,77.34
2022-10-29T21:43:54.327Z,77.42
2022-10-29T21:46:23.083Z,77.49
2022-10-29T21:48:52.307Z,77.53
2022-10-29T21:51:21.600Z,77.59
2022-10-29T21:53:50.502Z,77.72
2022-10-29T21:56:19.402Z,77.84
2022-10-29T21:58:51.362Z,77.96
2022-10-29T22:01:21.049Z,78.05
2022-10-29T22:03:50.755Z,78.11
2022-10-29T22:06:25.850Z,78.16
2022-10-29T22:08:58.163Z,78.23
2022-10-29T22:11:27.885Z,78.32
2022-10-29T22:13:57.301Z,78.44
2022-10-29T22:16:27.454Z,78.51
2022-10-29T22:18:57.147Z,78.59
2022-10-29T22:21:26.304Z,78.71
2022-10-29T22:23:57.728Z,78.81
2022-10-29T22:26:29.384Z,78.94
2022-10-29T22:28:59.187Z,79.02
2022-10-29T22:31:29.233Z,79.12
2022-10-29T22:33:58.178Z,79.17
2022-10-29T22:36:27.976Z,79.22
2022-10-29T22:38:58.196Z,79.31
2022-10-29T22:41:28.567Z,79.37
2022-10-29T22:44:00.665Z,79.42
2022-10-29T22:46:31.450Z,79.39
2022-10-29T22:49:05.224Z,79.44
2022-10-29T22:51:35.076Z,79.55
2022-10-29T22:54:04.837Z,79.65
2022-10-29T22:56:38.554Z,79.75
2022-10-29T22:59:08.618Z,79.81
2022-10-29T23:01:42.094Z,79.87
2022-10-29T23:04:09.738Z,80.00
2022-10-29T23:06:39.322Z,80.14
2022-10-29T23:09:10.235Z,80.30
2022-10-29T23:11:39.992Z,80.45
2022-10-29T23:14:10.035Z,80.58
2022-10-29T23:16:39.600Z,80.63
2022-10-29T23:19:09.748Z,80.73
2022-10-29T23:21:40.898Z,80.85
2022-10-29T23:24:10.471Z,80.95
2022-10-29T23:26:41.346Z,81.04
2022-10-29T23:29:10.517Z,81.04
2022-10-29T23:31:40.599Z,81.08
2022-10-29T23:34:12.026Z,81.09
2022-10-29T23:36:41.879Z,81.14
2022-10-29T23:39:12.341Z,81.21
2022-10-29T23:41:41.889Z,81.23
2022-10-29T23:44:12.686Z,81.22
2022-10-29T23:46:43.038Z,81.15
2022-10-29T23:49:12.619Z,81.12
2022-10-29T23:51:42.672Z,81.18
2022-10-29T23:54:11.934Z,81.22
2022-10-29T23:56:41.461Z,81.17
2022-10-29T23:59:10.480Z,81.20
